sensor_id;sensor_type;location;lat;lon;timestamp;P1;P2;P0
72023;PMS5003;59889;50.700;5.440;2022-09-21T00:01:45;3;3;
72023;PMS5003;59889;50.700;5.440;2022-09-21T00:04:10;3;2;
72023;PMS5003;59889;50.700;5.440;2022-09-21T00:06:35;2;2;
72023;PMS5003;59889;50.700;5.440;2022-09-21T00:09:01;2;2;
72023;PMS5003;59889;50.700;5.440;2022-09-21T00:11:27;1;1;
72023;PMS5003;59889;50.700;5.440;2022-09-21T00:13:51;1;1;
72023;PMS5003;59889;50.700;5.440;2022-09-21T00:16:16;0;0;
72023;PMS5003;59889;50.700;5.440;2022-09-21T00:18:41;1;1;
72023;PMS5003;59889;50.700;5.440;2022-09-21T00:21:06;1;1;
72023;PMS5003;59889;50.700;5.440;2022-09-21T00:23:32;2;2;
72023;PMS5003;59889;50.700;5.440;2022-09-21T00:28:21;1;1;
72023;PMS5003;59889;50.700;5.440;2022-09-21T00:30:46;2;2;
72023;PMS5003;59889;50.700;5.440;2022-09-21T00:33:11;3;3;
72023;PMS5003;59889;50.700;5.440;2022-09-21T00:35:36;1;1;
72023;PMS5003;59889;50.700;5.440;2022-09-21T00:38:01;2;2;
72023;PMS5003;59889;50.700;5.440;2022-09-21T00:40:26;2;2;
72023;PMS5003;59889;50.700;5.440;2022-09-21T00:42:52;1;1;
72023;PMS5003;59889;50.700;5.440;2022-09-21T00:45:17;1;1;
72023;PMS5003;59889;50.700;5.440;2022-09-21T00:47:42;3;2;
72023;PMS5003;59889;50.700;5.440;2022-09-21T00:50:07;1;1;
72023;PMS5003;59889;50.700;5.440;2022-09-21T00:52:33;2;2;
72023;PMS5003;59889;50.700;5.440;2022-09-21T00:54:59;0;0;
72023;PMS5003;59889;50.700;5.440;2022-09-21T00:57:23;2;2;
72023;PMS5003;59889;50.700;5.440;2022-09-21T00:59:47;1;1;
72023;PMS5003;59889;50.700;5.440;2022-09-21T01:02:12;2;1;
72023;PMS5003;59889;50.700;5.440;2022-09-21T01:04:37;0;0;
72023;PMS5003;59889;50.700;5.440;2022-09-21T01:07:02;3;2;
72023;PMS5003;59889;50.700;5.440;2022-09-21T01:09:27;1;1;
72023;PMS5003;59889;50.700;5.440;2022-09-21T01:11:56;1;1;
72023;PMS5003;59889;50.700;5.440;2022-09-21T01:14:22;1;1;
72023;PMS5003;59889;50.700;5.440;2022-09-21T01:16:44;2;2;
72023;PMS5003;59889;50.700;5.440;2022-09-21T01:19:11;1;1;
72023;PMS5003;59889;50.700;5.440;2022-09-21T01:21:32;2;2;
72023;PMS5003;59889;50.700;5.440;2022-09-21T01:24:02;2;2;
72023;PMS5003;59889;50.700;5.440;2022-09-21T01:26:24;1;1;
72023;PMS5003;59889;50.700;5.440;2022-09-21T01:28:55;1;1;
72023;PMS5003;59889;50.700;5.440;2022-09-21T01:31:13;1;1;
72023;PMS5003;59889;50.700;5.440;2022-09-21T01:33:38;2;2;
72023;PMS5003;59889;50.700;5.440;2022-09-21T01:36:04;2;2;
72023;PMS5003;59889;50.700;5.440;2022-09-21T01:38:29;2;2;
72023;PMS5003;59889;50.700;5.440;2022-09-21T01:40:54;2;2;
72023;PMS5003;59889;50.700;5.440;2022-09-21T01:43:19;0;0;
72023;PMS5003;59889;50.700;5.440;2022-09-21T01:45:43;1;1;
72023;PMS5003;59889;50.700;5.440;2022-09-21T01:48:08;2;0;
72023;PMS5003;59889;50.700;5.440;2022-09-21T01:50:34;3;2;
72023;PMS5003;59889;50.700;5.440;2022-09-21T01:52:59;1;1;
72023;PMS5003;59889;50.700;5.440;2022-09-21T01:55:24;2;1;
72023;PMS5003;59889;50.700;5.440;2022-09-21T01:57:49;2;2;
72023;PMS5003;59889;50.700;5.440;2022-09-21T02:00:13;2;2;
72023;PMS5003;59889;50.700;5.440;2022-09-21T02:02:40;1;1;
72023;PMS5003;59889;50.700;5.440;2022-09-21T02:05:03;2;2;
72023;PMS5003;59889;50.700;5.440;2022-09-21T02:07:28;2;2;
72023;PMS5003;59889;50.700;5.440;2022-09-21T02:09:53;3;2;
72023;PMS5003;59889;50.700;5.440;2022-09-21T02:12:18;2;2;
72023;PMS5003;59889;50.700;5.440;2022-09-21T02:14:43;1;1;
72023;PMS5003;59889;50.700;5.440;2022-09-21T02:17:13;2;2;
72023;PMS5003;59889;50.700;5.440;2022-09-21T02:19:35;2;2;
72023;PMS5003;59889;50.700;5.440;2022-09-21T02:22:00;1;1;
72023;PMS5003;59889;50.700;5.440;2022-09-21T02:24:27;2;2;
72023;PMS5003;59889;50.700;5.440;2022-09-21T02:26:49;2;2;
72023;PMS5003;59889;50.700;5.440;2022-09-21T02:29:16;0;0;
72023;PMS5003;59889;50.700;5.440;2022-09-21T02:31:40;2;2;
72023;PMS5003;59889;50.700;5.440;2022-09-21T02:34:05;0;0;
72023;PMS5003;59889;50.700;5.440;2022-09-21T02:36:29;2;2;
72023;PMS5003;59889;50.700;5.440;2022-09-21T02:38:55;1;1;
72023;PMS5003;59889;50.700;5.440;2022-09-21T02:41:22;2;2;
72023;PMS5003;59889;50.700;5.440;2022-09-21T02:43:44;1;1;
72023;PMS5003;59889;50.700;5.440;2022-09-21T02:46:09;2;2;
72023;PMS5003;59889;50.700;5.440;2022-09-21T02:48:34;1;1;
72023;PMS5003;59889;50.700;5.440;2022-09-21T02:51:02;2;2;
72023;PMS5003;59889;50.700;5.440;2022-09-21T02:53:26;1;1;
72023;PMS5003;59889;50.700;5.440;2022-09-21T02:55:49;2;2;
72023;PMS5003;59889;50.700;5.440;2022-09-21T02:58:14;1;1;
72023;PMS5003;59889;50.700;5.440;2022-09-21T03:00:39;2;1;
72023;PMS5003;59889;50.700;5.440;2022-09-21T03:05:29;1;1;
72023;PMS5003;59889;50.700;5.440;2022-09-21T03:07:54;1;1;
72023;PMS5003;59889;50.700;5.440;2022-09-21T03:10:19;2;1;
72023;PMS5003;59889;50.700;5.440;2022-09-21T03:12:44;2;2;
72023;PMS5003;59889;50.700;5.440;2022-09-21T03:15:09;1;1;
72023;PMS5003;59889;50.700;5.440;2022-09-21T03:17:34;2;2;
72023;PMS5003;59889;50.700;5.440;2022-09-21T03:20:00;2;2;
72023;PMS5003;59889;50.700;5.440;2022-09-21T03:22:24;2;2;
72023;PMS5003;59889;50.700;5.440;2022-09-21T03:24:49;2;2;
72023;PMS5003;59889;50.700;5.440;2022-09-21T03:27:15;1;1;
72023;PMS5003;59889;50.700;5.440;2022-09-21T03:29:40;1;1;
72023;PMS5003;59889;50.700;5.440;2022-09-21T03:32:05;2;2;
72023;PMS5003;59889;50.700;5.440;2022-09-21T03:34:30;0;0;
72023;PMS5003;59889;50.700;5.440;2022-09-21T03:36:55;2;2;
72023;PMS5003;59889;50.700;5.440;2022-09-21T03:39:20;2;2;
72023;PMS5003;59889;50.700;5.440;2022-09-21T03:41:45;2;2;
72023;PMS5003;59889;50.700;5.440;2022-09-21T03:44:10;2;1;
72023;PMS5003;59889;50.700;5.440;2022-09-21T03:46:35;0;0;
72023;PMS5003;59889;50.700;5.440;2022-09-21T03:49:00;2;2;
72023;PMS5003;59889;50.700;5.440;2022-09-21T03:51:25;3;3;
72023;PMS5003;59889;50.700;5.440;2022-09-21T03:53:50;1;1;
72023;PMS5003;59889;50.700;5.440;2022-09-21T03:56:15;3;2;
72023;PMS5003;59889;50.700;5.440;2022-09-21T03:58:40;2;2;
72023;PMS5003;59889;50.700;5.440;2022-09-21T04:01:05;2;2;
72023;PMS5003;59889;50.700;5.440;2022-09-21T04:03:30;2;2;
72023;PMS5003;59889;50.700;5.440;2022-09-21T04:05:55;1;1;
72023;PMS5003;59889;50.700;5.440;2022-09-21T04:08:20;1;1;
72023;PMS5003;59889;50.700;5.440;2022-09-21T04:10:46;1;1;
72023;PMS5003;59889;50.700;5.440;2022-09-21T04:13:10;0;0;
72023;PMS5003;59889;50.700;5.440;2022-09-21T04:15:35;2;2;
72023;PMS5003;59889;50.700;5.440;2022-09-21T04:18:01;1;1;
72023;PMS5003;59889;50.700;5.440;2022-09-21T04:20:26;2;2;
72023;PMS5003;59889;50.700;5.440;2022-09-21T04:22:51;2;2;
72023;PMS5003;59889;50.700;5.440;2022-09-21T04:25:16;1;1;
72023;PMS5003;59889;50.700;5.440;2022-09-21T04:27:41;2;2;
72023;PMS5003;59889;50.700;5.440;2022-09-21T04:30:06;2;2;
72023;PMS5003;59889;50.700;5.440;2022-09-21T04:32:31;3;2;
72023;PMS5003;59889;50.700;5.440;2022-09-21T04:34:56;2;2;
72023;PMS5003;59889;50.700;5.440;2022-09-21T04:37:21;2;2;
72023;PMS5003;59889;50.700;5.440;2022-09-21T04:39:46;2;2;
72023;PMS5003;59889;50.700;5.440;2022-09-21T04:42:11;2;2;
72023;PMS5003;59889;50.700;5.440;2022-09-21T04:44:36;1;1;
72023;PMS5003;59889;50.700;5.440;2022-09-21T04:47:01;1;1;
72023;PMS5003;59889;50.700;5.440;2022-09-21T04:49:26;2;2;
72023;PMS5003;59889;50.700;5.440;2022-09-21T04:51:51;1;1;
72023;PMS5003;59889;50.700;5.440;2022-09-21T04:54:16;2;2;
72023;PMS5003;59889;50.700;5.440;2022-09-21T04:56:42;0;0;
72023;PMS5003;59889;50.700;5.440;2022-09-21T04:59:07;2;2;
72023;PMS5003;59889;50.700;5.440;2022-09-21T05:01:32;1;1;
72023;PMS5003;59889;50.700;5.440;2022-09-21T05:03:57;2;2;
72023;PMS5003;59889;50.700;5.440;2022-09-21T05:06:23;2;1;
72023;PMS5003;59889;50.700;5.440;2022-09-21T05:08:47;2;2;
72023;PMS5003;59889;50.700;5.440;2022-09-21T05:11:13;2;2;
72023;PMS5003;59889;50.700;5.440;2022-09-21T05:13:37;2;2;
72023;PMS5003;59889;50.700;5.440;2022-09-21T05:16:02;3;3;
72023;PMS5003;59889;50.700;5.440;2022-09-21T05:18:27;6;6;
72023;PMS5003;59889;50.700;5.440;2022-09-21T05:20:52;6;6;
72023;PMS5003;59889;50.700;5.440;2022-09-21T05:23:17;7;6;
72023;PMS5003;59889;50.700;5.440;2022-09-21T05:25:42;7;7;
72023;PMS5003;59889;50.700;5.440;2022-09-21T05:28:08;8;8;
72023;PMS5003;59889;50.700;5.440;2022-09-21T05:30:32;8;7;
72023;PMS5003;59889;50.700;5.440;2022-09-21T05:32:58;11;11;
72023;PMS5003;59889;50.700;5.440;2022-09-21T05:35:24;10;10;
72023;PMS5003;59889;50.700;5.440;2022-09-21T05:37:50;10;10;
72023;PMS5003;59889;50.700;5.440;2022-09-21T05:40:13;12;12;
72023;PMS5003;59889;50.700;5.440;2022-09-21T05:42:39;12;11;
72023;PMS5003;59889;50.700;5.440;2022-09-21T05:45:04;12;11;
72023;PMS5003;59889;50.700;5.440;2022-09-21T05:47:33;10;10;
72023;PMS5003;59889;50.700;5.440;2022-09-21T05:49:56;10;10;
72023;PMS5003;59889;50.700;5.440;2022-09-21T05:52:20;11;11;
72023;PMS5003;59889;50.700;5.440;2022-09-21T05:54:46;11;11;
72023;PMS5003;59889;50.700;5.440;2022-09-21T05:57:10;14;12;
72023;PMS5003;59889;50.700;5.440;2022-09-21T05:59:37;10;10;
72023;PMS5003;59889;50.700;5.440;2022-09-21T06:02:00;13;12;
72023;PMS5003;59889;50.700;5.440;2022-09-21T06:04:24;14;13;
72023;PMS5003;59889;50.700;5.440;2022-09-21T06:06:50;10;10;
72023;PMS5003;59889;50.700;5.440;2022-09-21T06:09:15;13;12;
72023;PMS5003;59889;50.700;5.440;2022-09-21T06:11:40;14;13;
72023;PMS5003;59889;50.700;5.440;2022-09-21T06:14:06;16;16;
72023;PMS5003;59889;50.700;5.440;2022-09-21T06:16:36;13;13;
72023;PMS5003;59889;50.700;5.440;2022-09-21T06:18:56;13;12;
72023;PMS5003;59889;50.700;5.440;2022-09-21T06:21:22;15;15;
72023;PMS5003;59889;50.700;5.440;2022-09-21T06:23:47;12;11;
72023;PMS5003;59889;50.700;5.440;2022-09-21T06:26:13;13;12;
72023;PMS5003;59889;50.700;5.440;2022-09-21T06:28:38;15;14;
72023;PMS5003;59889;50.700;5.440;2022-09-21T06:31:03;17;14;
72023;PMS5003;59889;50.700;5.440;2022-09-21T06:33:28;12;12;
72023;PMS5003;59889;50.700;5.440;2022-09-21T06:35:54;12;11;
72023;PMS5003;59889;50.700;5.440;2022-09-21T06:38:21;19;15;
72023;PMS5003;59889;50.700;5.440;2022-09-21T06:40:44;14;13;
72023;PMS5003;59889;50.700;5.440;2022-09-21T06:43:09;16;14;
72023;PMS5003;59889;50.700;5.440;2022-09-21T06:45:35;14;14;
72023;PMS5003;59889;50.700;5.440;2022-09-21T06:48:00;14;14;
72023;PMS5003;59889;50.700;5.440;2022-09-21T06:50:25;14;14;
72023;PMS5003;59889;50.700;5.440;2022-09-21T06:52:50;11;11;
72023;PMS5003;59889;50.700;5.440;2022-09-21T06:55:15;13;12;
72023;PMS5003;59889;50.700;5.440;2022-09-21T06:57:40;15;13;
72023;PMS5003;59889;50.700;5.440;2022-09-21T07:00:06;12;12;
72023;PMS5003;59889;50.700;5.440;2022-09-21T07:02:31;11;11;
72023;PMS5003;59889;50.700;5.440;2022-09-21T07:04:56;14;13;
72023;PMS5003;59889;50.700;5.440;2022-09-21T07:07:21;15;15;
72023;PMS5003;59889;50.700;5.440;2022-09-21T07:09:46;16;15;
72023;PMS5003;59889;50.700;5.440;2022-09-21T07:12:11;15;14;
72023;PMS5003;59889;50.700;5.440;2022-09-21T07:14:37;15;14;
72023;PMS5003;59889;50.700;5.440;2022-09-21T07:17:02;23;19;
72023;PMS5003;59889;50.700;5.440;2022-09-21T07:19:28;15;13;
72023;PMS5003;59889;50.700;5.440;2022-09-21T07:21:53;13;13;
72023;PMS5003;59889;50.700;5.440;2022-09-21T07:24:18;15;14;
72023;PMS5003;59889;50.700;5.440;2022-09-21T07:26:43;13;13;
72023;PMS5003;59889;50.700;5.440;2022-09-21T07:29:09;13;12;
72023;PMS5003;59889;50.700;5.440;2022-09-21T07:31:34;16;14;
72023;PMS5003;59889;50.700;5.440;2022-09-21T07:33:59;13;11;
72023;PMS5003;59889;50.700;5.440;2022-09-21T07:36:24;12;12;
72023;PMS5003;59889;50.700;5.440;2022-09-21T07:38:49;14;13;
72023;PMS5003;59889;50.700;5.440;2022-09-21T07:41:14;12;11;
72023;PMS5003;59889;50.700;5.440;2022-09-21T07:43:39;14;11;
72023;PMS5003;59889;50.700;5.440;2022-09-21T07:46:05;11;11;
72023;PMS5003;59889;50.700;5.440;2022-09-21T07:48:30;11;11;
72023;PMS5003;59889;50.700;5.440;2022-09-21T07:50:59;13;13;
72023;PMS5003;59889;50.700;5.440;2022-09-21T07:53:20;12;12;
72023;PMS5003;59889;50.700;5.440;2022-09-21T07:55:45;12;11;
72023;PMS5003;59889;50.700;5.440;2022-09-21T07:58:11;12;11;
72023;PMS5003;59889;50.700;5.440;2022-09-21T08:00:36;13;12;
72023;PMS5003;59889;50.700;5.440;2022-09-21T08:03:01;13;11;
72023;PMS5003;59889;50.700;5.440;2022-09-21T08:05:27;12;11;
72023;PMS5003;59889;50.700;5.440;2022-09-21T08:07:53;15;13;
72023;PMS5003;59889;50.700;5.440;2022-09-21T08:10:17;13;13;
72023;PMS5003;59889;50.700;5.440;2022-09-21T08:12:42;15;14;
72023;PMS5003;59889;50.700;5.440;2022-09-21T08:15:08;12;11;
72023;PMS5003;59889;50.700;5.440;2022-09-21T08:17:33;9;9;
72023;PMS5003;59889;50.700;5.440;2022-09-21T08:19:59;12;12;
72023;PMS5003;59889;50.700;5.440;2022-09-21T08:22:24;12;12;
72023;PMS5003;59889;50.700;5.440;2022-09-21T08:24:49;15;11;
72023;PMS5003;59889;50.700;5.440;2022-09-21T08:27:14;14;12;
72023;PMS5003;59889;50.700;5.440;2022-09-21T08:29:39;11;11;
72023;PMS5003;59889;50.700;5.440;2022-09-21T08:32:04;10;10;
72023;PMS5003;59889;50.700;5.440;2022-09-21T08:34:29;11;11;
72023;PMS5003;59889;50.700;5.440;2022-09-21T08:36:54;14;12;
72023;PMS5003;59889;50.700;5.440;2022-09-21T08:39:19;10;10;
72023;PMS5003;59889;50.700;5.440;2022-09-21T08:41:48;11;10;
72023;PMS5003;59889;50.700;5.440;2022-09-21T08:44:10;13;12;
72023;PMS5003;59889;50.700;5.440;2022-09-21T08:46:35;10;9;
72023;PMS5003;59889;50.700;5.440;2022-09-21T08:49:01;10;10;
72023;PMS5003;59889;50.700;5.440;2022-09-21T08:51:25;13;10;
72023;PMS5003;59889;50.700;5.440;2022-09-21T08:53:50;11;9;
72023;PMS5003;59889;50.700;5.440;2022-09-21T08:56:15;11;10;
72023;PMS5003;59889;50.700;5.440;2022-09-21T08:58:40;10;9;
72023;PMS5003;59889;50.700;5.440;2022-09-21T09:01:07;11;9;
72023;PMS5003;59889;50.700;5.440;2022-09-21T09:03:34;12;10;
72023;PMS5003;59889;50.700;5.440;2022-09-21T09:05:57;10;10;
72023;PMS5003;59889;50.700;5.440;2022-09-21T09:08:26;10;10;
72023;PMS5003;59889;50.700;5.440;2022-09-21T09:10:49;14;11;
72023;PMS5003;59889;50.700;5.440;2022-09-21T09:13:17;10;10;
72023;PMS5003;59889;50.700;5.440;2022-09-21T09:15:39;9;8;
72023;PMS5003;59889;50.700;5.440;2022-09-21T09:18:02;10;9;
72023;PMS5003;59889;50.700;5.440;2022-09-21T09:20:26;10;10;
72023;PMS5003;59889;50.700;5.440;2022-09-21T09:22:52;10;9;
72023;PMS5003;59889;50.700;5.440;2022-09-21T09:25:17;9;9;
72023;PMS5003;59889;50.700;5.440;2022-09-21T09:27:41;11;10;
72023;PMS5003;59889;50.700;5.440;2022-09-21T09:30:10;10;10;
72023;PMS5003;59889;50.700;5.440;2022-09-21T09:32:33;10;9;
72023;PMS5003;59889;50.700;5.440;2022-09-21T09:34:57;11;10;
72023;PMS5003;59889;50.700;5.440;2022-09-21T09:37:23;10;9;
72023;PMS5003;59889;50.700;5.440;2022-09-21T09:39:47;10;9;
72023;PMS5003;59889;50.700;5.440;2022-09-21T09:42:17;8;8;
72023;PMS5003;59889;50.700;5.440;2022-09-21T09:44:42;9;9;
72023;PMS5003;59889;50.700;5.440;2022-09-21T09:47:03;11;10;
72023;PMS5003;59889;50.700;5.440;2022-09-21T09:49:29;11;10;
72023;PMS5003;59889;50.700;5.440;2022-09-21T09:51:51;9;9;
72023;PMS5003;59889;50.700;5.440;2022-09-21T09:54:17;11;9;
72023;PMS5003;59889;50.700;5.440;2022-09-21T09:56:43;10;9;
72023;PMS5003;59889;50.700;5.440;2022-09-21T09:59:09;7;7;
72023;PMS5003;59889;50.700;5.440;2022-09-21T10:01:35;8;8;
72023;PMS5003;59889;50.700;5.440;2022-09-21T10:04:03;7;7;
72023;PMS5003;59889;50.700;5.440;2022-09-21T10:06:29;9;8;
72023;PMS5003;59889;50.700;5.440;2022-09-21T10:08:48;9;9;
72023;PMS5003;59889;50.700;5.440;2022-09-21T10:11:23;12;11;
72023;PMS5003;59889;50.700;5.440;2022-09-21T10:13:38;9;8;
72023;PMS5003;59889;50.700;5.440;2022-09-21T10:16:04;10;9;
72023;PMS5003;59889;50.700;5.440;2022-09-21T10:18:31;10;7;
72023;PMS5003;59889;50.700;5.440;2022-09-21T10:20:54;8;7;
72023;PMS5003;59889;50.700;5.440;2022-09-21T10:23:18;9;8;
72023;PMS5003;59889;50.700;5.440;2022-09-21T10:25:43;8;8;
72023;PMS5003;59889;50.700;5.440;2022-09-21T10:28:08;10;10;
72023;PMS5003;59889;50.700;5.440;2022-09-21T10:30:34;9;9;
72023;PMS5003;59889;50.700;5.440;2022-09-21T10:32:59;10;9;
72023;PMS5003;59889;50.700;5.440;2022-09-21T10:35:24;7;7;
72023;PMS5003;59889;50.700;5.440;2022-09-21T10:37:49;7;7;
72023;PMS5003;59889;50.700;5.440;2022-09-21T10:40:22;10;9;
72023;PMS5003;59889;50.700;5.440;2022-09-21T10:42:40;7;7;
72023;PMS5003;59889;50.700;5.440;2022-09-21T10:45:06;7;7;
72023;PMS5003;59889;50.700;5.440;2022-09-21T10:47:31;8;8;
72023;PMS5003;59889;50.700;5.440;2022-09-21T10:49:56;7;7;
72023;PMS5003;59889;50.700;5.440;2022-09-21T10:52:21;7;7;
72023;PMS5003;59889;50.700;5.440;2022-09-21T10:54:46;9;7;
72023;PMS5003;59889;50.700;5.440;2022-09-21T10:57:13;10;9;
72023;PMS5003;59889;50.700;5.440;2022-09-21T10:59:36;6;6;
72023;PMS5003;59889;50.700;5.440;2022-09-21T11:02:02;8;8;
72023;PMS5003;59889;50.700;5.440;2022-09-21T11:04:30;9;9;
72023;PMS5003;59889;50.700;5.440;2022-09-21T11:06:52;7;7;
72023;PMS5003;59889;50.700;5.440;2022-09-21T11:09:18;8;8;
72023;PMS5003;59889;50.700;5.440;2022-09-21T11:11:44;8;8;
72023;PMS5003;59889;50.700;5.440;2022-09-21T11:14:10;8;7;
72023;PMS5003;59889;50.700;5.440;2022-09-21T11:16:33;10;10;
72023;PMS5003;59889;50.700;5.440;2022-09-21T11:18:58;9;9;
72023;PMS5003;59889;50.700;5.440;2022-09-21T11:21:23;6;6;
72023;PMS5003;59889;50.700;5.440;2022-09-21T11:23:48;7;6;
72023;PMS5003;59889;50.700;5.440;2022-09-21T11:26:14;7;7;
72023;PMS5003;59889;50.700;5.440;2022-09-21T11:28:38;7;6;
72023;PMS5003;59889;50.700;5.440;2022-09-21T11:31:09;7;6;
72023;PMS5003;59889;50.700;5.440;2022-09-21T11:33:32;8;6;
72023;PMS5003;59889;50.700;5.440;2022-09-21T11:35:55;8;8;
72023;PMS5003;59889;50.700;5.440;2022-09-21T11:38:21;9;8;
72023;PMS5003;59889;50.700;5.440;2022-09-21T11:40:48;8;8;
72023;PMS5003;59889;50.700;5.440;2022-09-21T11:43:14;5;5;
72023;PMS5003;59889;50.700;5.440;2022-09-21T11:48:02;8;7;
72023;PMS5003;59889;50.700;5.440;2022-09-21T11:50:27;7;7;
72023;PMS5003;59889;50.700;5.440;2022-09-21T11:52:51;7;7;
72023;PMS5003;59889;50.700;5.440;2022-09-21T11:55:16;9;7;
72023;PMS5003;59889;50.700;5.440;2022-09-21T11:57:41;7;7;
72023;PMS5003;59889;50.700;5.440;2022-09-21T12:00:10;8;7;
72023;PMS5003;59889;50.700;5.440;2022-09-21T12:02:36;6;5;
72023;PMS5003;59889;50.700;5.440;2022-09-21T12:04:54;9;8;
72023;PMS5003;59889;50.700;5.440;2022-09-21T12:07:24;8;8;
72023;PMS5003;59889;50.700;5.440;2022-09-21T12:09:54;8;7;
72023;PMS5003;59889;50.700;5.440;2022-09-21T12:12:11;8;7;
72023;PMS5003;59889;50.700;5.440;2022-09-21T12:14:36;5;5;
72023;PMS5003;59889;50.700;5.440;2022-09-21T12:17:01;8;7;
72023;PMS5003;59889;50.700;5.440;2022-09-21T12:19:27;8;8;
72023;PMS5003;59889;50.700;5.440;2022-09-21T12:21:51;7;7;
72023;PMS5003;59889;50.700;5.440;2022-09-21T12:24:17;7;6;
72023;PMS5003;59889;50.700;5.440;2022-09-21T12:26:41;4;4;
72023;PMS5003;59889;50.700;5.440;2022-09-21T12:29:06;8;6;
72023;PMS5003;59889;50.700;5.440;2022-09-21T12:31:34;6;6;
72023;PMS5003;59889;50.700;5.440;2022-09-21T12:33:56;7;7;
72023;PMS5003;59889;50.700;5.440;2022-09-21T12:36:22;7;6;
72023;PMS5003;59889;50.700;5.440;2022-09-21T12:38:47;7;7;
72023;PMS5003;59889;50.700;5.440;2022-09-21T12:41:12;6;6;
72023;PMS5003;59889;50.700;5.440;2022-09-21T12:43:37;6;6;
72023;PMS5003;59889;50.700;5.440;2022-09-21T12:46:01;7;6;
72023;PMS5003;59889;50.700;5.440;2022-09-21T12:48:28;6;6;
72023;PMS5003;59889;50.700;5.440;2022-09-21T12:50:53;7;7;
72023;PMS5003;59889;50.700;5.440;2022-09-21T12:53:17;6;6;
72023;PMS5003;59889;50.700;5.440;2022-09-21T12:55:43;7;6;
72023;PMS5003;59889;50.700;5.440;2022-09-21T12:58:07;6;6;
72023;PMS5003;59889;50.700;5.440;2022-09-21T13:00:33;6;6;
72023;PMS5003;59889;50.700;5.440;2022-09-21T13:02:57;8;8;
72023;PMS5003;59889;50.700;5.440;2022-09-21T13:05:23;6;6;
72023;PMS5003;59889;50.700;5.440;2022-09-21T13:07:56;7;7;
72023;PMS5003;59889;50.700;5.440;2022-09-21T13:10:14;8;6;
72023;PMS5003;59889;50.700;5.440;2022-09-21T13:12:37;6;6;
72023;PMS5003;59889;50.700;5.440;2022-09-21T13:15:02;7;7;
72023;PMS5003;59889;50.700;5.440;2022-09-21T13:17:28;5;5;
72023;PMS5003;59889;50.700;5.440;2022-09-21T13:19:54;5;5;
72023;PMS5003;59889;50.700;5.440;2022-09-21T13:22:20;6;6;
72023;PMS5003;59889;50.700;5.440;2022-09-21T13:24:42;6;5;
72023;PMS5003;59889;50.700;5.440;2022-09-21T13:27:07;5;5;
72023;PMS5003;59889;50.700;5.440;2022-09-21T13:29:33;7;6;
72023;PMS5003;59889;50.700;5.440;2022-09-21T13:31:57;7;7;
72023;PMS5003;59889;50.700;5.440;2022-09-21T13:34:24;9;8;
72023;PMS5003;59889;50.700;5.440;2022-09-21T13:39:14;5;5;
72023;PMS5003;59889;50.700;5.440;2022-09-21T13:41:37;5;5;
72023;PMS5003;59889;50.700;5.440;2022-09-21T13:44:03;6;6;
72023;PMS5003;59889;50.700;5.440;2022-09-21T13:49:04;8;7;
72023;PMS5003;59889;50.700;5.440;2022-09-21T13:51:18;7;6;
72023;PMS5003;59889;50.700;5.440;2022-09-21T13:53:43;6;6;
72023;PMS5003;59889;50.700;5.440;2022-09-21T13:58:33;6;6;
72023;PMS5003;59889;50.700;5.440;2022-09-21T14:00:59;6;5;
72023;PMS5003;59889;50.700;5.440;2022-09-21T14:03:24;4;4;
72023;PMS5003;59889;50.700;5.440;2022-09-21T14:05:49;8;7;
72023;PMS5003;59889;50.700;5.440;2022-09-21T14:08:18;6;5;
72023;PMS5003;59889;50.700;5.440;2022-09-21T14:10:38;4;4;
72023;PMS5003;59889;50.700;5.440;2022-09-21T14:13:05;6;6;
72023;PMS5003;59889;50.700;5.440;2022-09-21T14:15:30;7;6;
72023;PMS5003;59889;50.700;5.440;2022-09-21T14:20:25;6;5;
72023;PMS5003;59889;50.700;5.440;2022-09-21T14:22:44;4;4;
72023;PMS5003;59889;50.700;5.440;2022-09-21T14:27:35;5;5;
72023;PMS5003;59889;50.700;5.440;2022-09-21T14:30:00;4;4;
72023;PMS5003;59889;50.700;5.440;2022-09-21T14:32:25;7;5;
72023;PMS5003;59889;50.700;5.440;2022-09-21T14:34:50;4;4;
72023;PMS5003;59889;50.700;5.440;2022-09-21T14:37:19;5;5;
72023;PMS5003;59889;50.700;5.440;2022-09-21T14:39:40;4;4;
72023;PMS5003;59889;50.700;5.440;2022-09-21T14:42:06;7;6;
72023;PMS5003;59889;50.700;5.440;2022-09-21T14:44:30;6;6;
72023;PMS5003;59889;50.700;5.440;2022-09-21T14:47:04;6;6;
72023;PMS5003;59889;50.700;5.440;2022-09-21T14:49:23;5;5;
72023;PMS5003;59889;50.700;5.440;2022-09-21T14:51:48;7;6;
72023;PMS5003;59889;50.700;5.440;2022-09-21T14:54:14;5;5;
72023;PMS5003;59889;50.700;5.440;2022-09-21T14:56:39;6;5;
72023;PMS5003;59889;50.700;5.440;2022-09-21T14:59:08;5;5;
72023;PMS5003;59889;50.700;5.440;2022-09-21T15:03:54;6;6;
72023;PMS5003;59889;50.700;5.440;2022-09-21T15:06:19;5;5;
72023;PMS5003;59889;50.700;5.440;2022-09-21T15:08:44;5;5;
72023;PMS5003;59889;50.700;5.440;2022-09-21T15:11:07;6;6;
72023;PMS5003;59889;50.700;5.440;2022-09-21T15:15:58;3;3;
72023;PMS5003;59889;50.700;5.440;2022-09-21T15:18:21;7;5;
72023;PMS5003;59889;50.700;5.440;2022-09-21T15:23:16;4;4;
72023;PMS5003;59889;50.700;5.440;2022-09-21T15:25:36;7;7;
72023;PMS5003;59889;50.700;5.440;2022-09-21T15:28:01;5;4;
72023;PMS5003;59889;50.700;5.440;2022-09-21T15:30:26;4;4;
72023;PMS5003;59889;50.700;5.440;2022-09-21T15:32:51;4;4;
72023;PMS5003;59889;50.700;5.440;2022-09-21T15:35:17;5;4;
72023;PMS5003;59889;50.700;5.440;2022-09-21T15:37:41;4;4;
72023;PMS5003;59889;50.700;5.440;2022-09-21T15:40:14;6;6;
72023;PMS5003;59889;50.700;5.440;2022-09-21T15:42:31;5;5;
72023;PMS5003;59889;50.700;5.440;2022-09-21T15:45:09;4;3;
72023;PMS5003;59889;50.700;5.440;2022-09-21T15:47:22;5;5;
72023;PMS5003;59889;50.700;5.440;2022-09-21T15:49:46;6;5;
72023;PMS5003;59889;50.700;5.440;2022-09-21T15:52:13;4;4;
72023;PMS5003;59889;50.700;5.440;2022-09-21T15:54:39;5;5;
72023;PMS5003;59889;50.700;5.440;2022-09-21T15:57:02;5;5;
72023;PMS5003;59889;50.700;5.440;2022-09-21T15:59:27;6;6;
72023;PMS5003;59889;50.700;5.440;2022-09-21T16:01:53;6;6;
72023;PMS5003;59889;50.700;5.440;2022-09-21T16:04:17;7;6;
72023;PMS5003;59889;50.700;5.440;2022-09-21T16:06:44;6;5;
72023;PMS5003;59889;50.700;5.440;2022-09-21T16:11:33;5;4;
72023;PMS5003;59889;50.700;5.440;2022-09-21T16:13:58;7;6;
72023;PMS5003;59889;50.700;5.440;2022-09-21T16:16:22;4;4;
72023;PMS5003;59889;50.700;5.440;2022-09-21T16:18:48;5;5;
72023;PMS5003;59889;50.700;5.440;2022-09-21T16:21:14;6;5;
72023;PMS5003;59889;50.700;5.440;2022-09-21T16:23:37;6;6;
72023;PMS5003;59889;50.700;5.440;2022-09-21T16:26:02;6;6;
72023;PMS5003;59889;50.700;5.440;2022-09-21T16:28:29;7;7;
72023;PMS5003;59889;50.700;5.440;2022-09-21T16:30:53;5;5;
72023;PMS5003;59889;50.700;5.440;2022-09-21T16:35:43;4;4;
72023;PMS5003;59889;50.700;5.440;2022-09-21T16:38:08;6;5;
72023;PMS5003;59889;50.700;5.440;2022-09-21T16:40:33;6;5;
72023;PMS5003;59889;50.700;5.440;2022-09-21T16:42:58;5;5;
72023;PMS5003;59889;50.700;5.440;2022-09-21T16:45:24;5;5;
72023;PMS5003;59889;50.700;5.440;2022-09-21T16:47:49;6;6;
72023;PMS5003;59889;50.700;5.440;2022-09-21T16:50:14;4;4;
72023;PMS5003;59889;50.700;5.440;2022-09-21T16:52:39;6;5;
72023;PMS5003;59889;50.700;5.440;2022-09-21T16:55:05;7;6;
72023;PMS5003;59889;50.700;5.440;2022-09-21T16:57:29;6;6;
72023;PMS5003;59889;50.700;5.440;2022-09-21T16:59:55;6;6;